Time;durP1;ratioP1;P1;durP2;ratioP2;P2;SDS_P1;SDS_P2;PMS_P1;PMS_P2;Temp;Humidity;BMP_temperature;BMP_pressure;BME280_temperature;BME280_humidity;BME280_pressure;Samples;Min_cycle;Max_cycle;Signal;HPM_P1;HPM_P2
2022/09/20 00:00:06;;;;;;;;;;;;;;;12.47;45.93;101801.31;5031663;28;19925;-66
2022/09/20 00:02:33;;;;;;;;;;;;;;;12.46;45.80;101799.56;5033458;28;19921;-66
2022/09/20 00:05:01;;;;;;;;;;;;;;;12.46;46.07;101796.81;5026209;28;19921;-66
2022/09/20 00:07:30;;;;;;;;;;;;;;;12.46;46.01;101785.84;5034432;28;20559;-67
2022/09/20 00:09:58;;;;;;;;;;;;;;;12.45;45.93;101792.38;5026850;28;19921;-67
2022/09/20 00:12:25;;;;;;;;;;;;;;;12.46;45.99;101783.09;5027844;28;19971;-66
2022/09/20 00:14:53;;;;;;;;;;;;;;;12.45;45.82;101787.75;5029127;28;19921;-66
2022/09/20 00:17:21;;;;;;;;;;;;;;;12.45;46.08;101790.50;5038242;28;19939;-66
2022/09/20 00:19:48;;;;;;;;;;;;;;;12.45;46.29;101785.00;5032891;28;19920;-67
2022/09/20 00:22:16;;;;;;;;;;;;;;;12.46;46.33;101788.59;5025933;28;20259;-66
2022/09/20 00:24:46;;;;;;;;;;;;;;;12.46;46.22;101788.59;5028928;28;20019;-66
2022/09/20 00:27:15;;;;;;;;;;;;;;;12.46;46.35;101788.59;5034022;28;19920;-67
2022/09/20 00:29:43;;;;;;;;;;;;;;;12.47;46.34;101790.34;5023640;28;19974;-67
2022/09/20 00:32:11;;;;;;;;;;;;;;;12.48;46.27;101789.34;5038861;28;19924;-66
2022/09/20 00:37:26;;;;;;;;;;;;;;;12.47;46.58;101793.09;5027803;28;19956;-67
2022/09/20 00:39:55;;;;;;;;;;;;;;;12.47;46.59;101799.47;5038286;28;19982;-66
2022/09/20 00:42:26;;;;;;;;;;;;;;;12.48;46.30;101792.97;5030150;28;19920;-66
2022/09/20 00:44:56;;;;;;;;;;;;;;;12.48;46.26;101794.84;5031146;28;19943;-66
2022/09/20 00:47:32;;;;;;;;;;;;;;;12.48;46.26;101792.97;5030280;28;19925;-67
2022/09/20 00:50:02;;;;;;;;;;;;;;;12.48;46.53;101795.72;5026272;28;19921;-67
2022/09/20 00:52:31;;;;;;;;;;;;;;;12.49;46.27;101793.84;5028615;28;19947;-67
2022/09/20 00:55:00;;;;;;;;;;;;;;;12.48;46.49;101792.97;5028766;28;20264;-67
2022/09/20 00:57:34;;;;;;;;;;;;;;;12.49;46.42;101788.34;5028423;28;20451;-68
2022/09/20 01:00:05;;;;;;;;;;;;;;;12.49;46.39;101793.84;5036940;28;19929;-66
2022/09/20 01:02:35;;;;;;;;;;;;;;;12.49;46.44;101791.97;5029635;28;19928;-68
2022/09/20 01:05:03;;;;;;;;;;;;;;;12.49;46.51;101788.34;5030601;28;19921;-68
2022/09/20 01:07:33;;;;;;;;;;;;;;;12.49;46.52;101791.97;5031237;28;19925;-67
2022/09/20 01:10:02;;;;;;;;;;;;;;;12.50;46.37;101787.38;5030421;28;20342;-67
2022/09/20 01:12:33;;;;;;;;;;;;;;;12.50;46.55;101782.75;5027402;28;20303;-68
2022/09/20 01:15:02;;;;;;;;;;;;;;;12.52;46.56;101788.13;5042295;28;19928;-68
2022/09/20 01:17:31;;;;;;;;;;;;;;;12.51;46.36;101786.38;5027432;28;19947;-68
2022/09/20 01:20:08;;;;;;;;;;;;;;;12.51;46.65;101797.34;5028745;28;20379;-68
2022/09/20 01:22:41;;;;;;;;;;;;;;;12.50;46.69;101785.50;5037964;28;19928;-68
2022/09/20 01:25:14;;;;;;;;;;;;;;;12.52;46.58;101801.84;5029117;28;19921;-68
2022/09/20 01:27:45;;;;;;;;;;;;;;;12.51;46.43;101800.09;5037664;28;19931;-68
2022/09/20 01:30:15;;;;;;;;;;;;;;;12.53;46.81;101800.84;5043009;28;19928;-66
2022/09/20 01:32:47;;;;;;;;;;;;;;;12.54;46.72;101796.25;5042133;28;19921;-67
2022/09/20 01:35:18;;;;;;;;;;;;;;;12.54;46.53;101796.25;5028517;28;19921;-67
2022/09/20 01:37:50;;;;;;;;;;;;;;;12.54;46.72;101797.13;5030752;28;19925;-67
2022/09/20 01:40:22;;;;;;;;;;;;;;;12.54;46.72;101797.13;5030115;28;19928;-67
2022/09/20 01:42:55;;;;;;;;;;;;;;;12.54;47.08;101799.88;5024483;28;20033;-68
2022/09/20 01:45:27;;;;;;;;;;;;;;;12.54;46.61;101788.88;5038380;28;19928;-68
2022/09/20 01:48:01;;;;;;;;;;;;;;;12.54;46.82;101797.13;5031214;28;19939;-67
2022/09/20 01:50:33;;;;;;;;;;;;;;;12.54;46.75;101799.88;5038360;28;20019;-68
2022/09/20 01:53:34;;;;;;;;;;;;;;;12.54;46.83;101799.00;5034018;28;19927;-68
2022/09/20 01:56:19;;;;;;;;;;;;;;;12.54;46.76;101799.00;5042376;28;20597;-68
2022/09/20 01:59:07;;;;;;;;;;;;;;;12.54;47.14;101808.09;5046804;28;19970;-68
2022/09/20 02:02:06;;;;;;;;;;;;;;;12.54;46.88;101808.09;5023233;28;19952;-68
2022/09/20 02:04:50;;;;;;;;;;;;;;;12.54;47.03;101805.34;5021373;28;20016;-68
2022/09/20 02:07:31;;;;;;;;;;;;;;;12.55;46.74;101807.06;5015148;28;19927;-68
2022/09/20 02:10:25;;;;;;;;;;;;;;;12.56;46.81;101807.94;5045072;28;19928;-68
2022/09/20 02:12:53;;;;;;;;;;;;;;;12.56;46.98;101807.94;5036724;28;19975;-68
2022/09/20 02:15:40;;;;;;;;;;;;;;;12.56;47.02;101806.06;5034615;28;19979;-68
2022/09/20 02:18:18;;;;;;;;;;;;;;;12.57;47.05;101806.94;5032759;28;19921;-68
2022/09/20 02:20:52;;;;;;;;;;;;;;;12.57;46.94;101801.47;5032051;28;19921;-67
2022/09/20 02:23:32;;;;;;;;;;;;;;;12.58;46.88;101800.47;5028918;28;20321;-67
2022/09/20 02:26:05;;;;;;;;;;;;;;;12.58;46.98;101805.97;5032257;28;19928;-67
2022/09/20 02:28:40;;;;;;;;;;;;;;;12.58;47.11;101801.34;5030325;28;19925;-68
2022/09/20 02:31:14;;;;;;;;;;;;;;;12.59;46.81;101799.47;5031795;28;20346;-67
2022/09/20 02:34:06;;;;;;;;;;;;;;;12.58;46.99;101797.72;5033115;28;19921;-67
2022/09/20 02:36:40;;;;;;;;;;;;;;;12.58;46.74;101793.09;5033646;28;19927;-66
2022/09/20 02:39:11;;;;;;;;;;;;;;;12.56;47.02;101792.34;5014232;28;19921;-68
2022/09/20 02:41:48;;;;;;;;;;;;;;;12.57;46.99;101795.97;5028651;28;19925;-68
2022/09/20 02:44:21;;;;;;;;;;;;;;;12.57;46.70;101793.22;5032493;28;20558;-68
2022/09/20 02:46:54;;;;;;;;;;;;;;;12.57;47.01;101791.34;5033410;28;20011;-67
2022/09/20 02:49:28;;;;;;;;;;;;;;;12.56;46.74;101792.34;5013977;28;19928;-67
2022/09/20 02:51:57;;;;;;;;;;;;;;;12.57;47.06;101787.72;5032334;28;19921;-67
2022/09/20 02:54:32;;;;;;;;;;;;;;;12.56;46.68;101786.84;5029365;28;20434;-67
2022/09/20 02:57:03;;;;;;;;;;;;;;;12.57;46.65;101793.22;5025239;28;20009;-67
2022/09/20 02:59:37;;;;;;;;;;;;;;;12.56;47.09;101783.22;5034193;28;19928;-68
2022/09/20 03:02:09;;;;;;;;;;;;;;;12.56;46.95;101785.97;5033736;28;19928;-68
2022/09/20 03:04:45;;;;;;;;;;;;;;;12.56;46.74;101791.47;5033995;28;19921;-68
2022/09/20 03:07:18;;;;;;;;;;;;;;;12.55;47.02;101789.72;5029284;28;20358;-68
2022/09/20 03:09:51;;;;;;;;;;;;;;;12.55;47.14;101786.97;5016984;28;19955;-68
2022/09/20 03:12:26;;;;;;;;;;;;;;;12.56;47.12;101785.97;5025938;28;19991;-68
2022/09/20 03:14:59;;;;;;;;;;;;;;;12.54;47.19;101783.38;5033879;28;19932;-66
2022/09/20 03:17:30;;;;;;;;;;;;;;;12.54;46.81;101788.88;5036852;28;20338;-66
2022/09/20 03:20:08;;;;;;;;;;;;;;;12.55;47.00;101786.97;5026773;28;19932;-66
2022/09/20 03:22:45;;;;;;;;;;;;;;;12.55;47.01;101785.09;5029534;28;20031;-65
2022/09/20 03:25:27;;;;;;;;;;;;;;;12.54;46.92;101788.88;5027479;28;20319;-68
2022/09/20 03:28:03;;;;;;;;;;;;;;;12.54;47.13;101788.88;5037217;28;19929;-67
2022/09/20 03:30:39;;;;;;;;;;;;;;;12.54;47.14;101774.28;5021220;28;19925;-68
2022/09/20 03:33:12;;;;;;;;;;;;;;;12.53;47.17;101787.13;5034804;28;19921;-68
2022/09/20 03:35:52;;;;;;;;;;;;;;;12.53;46.97;101781.63;5028178;28;19921;-68
2022/09/20 03:38:38;;;;;;;;;;;;;;;12.52;47.17;101785.38;5030960;28;20564;-67
2022/09/20 03:41:23;;;;;;;;;;;;;;;12.53;46.92;101776.16;5011548;28;19921;-67
2022/09/20 03:44:05;;;;;;;;;;;;;;;12.53;47.16;101784.38;5022276;28;19929;-68
2022/09/20 03:46:37;;;;;;;;;;;;;;;12.52;46.88;101788.13;5026683;28;19921;-67
2022/09/20 03:49:19;;;;;;;;;;;;;;;12.51;47.10;101786.38;5044987;28;19974;-67
2022/09/20 03:51:53;;;;;;;;;;;;;;;12.51;47.23;101789.13;5027310;28;19940;-68
2022/09/20 03:54:34;;;;;;;;;;;;;;;12.50;46.84;101788.25;5028808;28;19921;-67
2022/09/20 03:57:13;;;;;;;;;;;;;;;12.50;47.13;101787.38;5034670;28;19928;-67
2022/09/20 03:59:56;;;;;;;;;;;;;;;12.50;47.05;101792.84;5031415;28;19956;-67
2022/09/20 04:02:30;;;;;;;;;;;;;;;12.49;47.24;101793.84;5039003;28;19920;-67
2022/09/20 04:05:00;;;;;;;;;;;;;;;12.48;47.22;101786.59;5030401;28;19948;-68
2022/09/20 04:07:35;;;;;;;;;;;;;;;12.47;46.94;101793.09;5031886;28;19940;-67
2022/09/20 04:10:12;;;;;;;;;;;;;;;12.47;46.91;101795.84;5027523;28;20048;-68
2022/09/20 04:12:45;;;;;;;;;;;;;;;12.46;46.99;101800.44;5041095;28;20402;-67
2022/09/20 04:15:31;;;;;;;;;;;;;;;12.45;46.86;101793.25;5031052;28;19929;-67
2022/09/20 04:18:02;;;;;;;;;;;;;;;12.44;47.06;101794.25;5030300;28;19967;-67
2022/09/20 04:20:33;;;;;;;;;;;;;;;12.44;46.95;101796.09;5015878;28;20299;-66
2022/09/20 04:23:09;;;;;;;;;;;;;;;12.43;47.29;101792.47;5032293;28;19925;-66
2022/09/20 04:25:39;;;;;;;;;;;;;;;12.43;47.16;101791.59;5019779;28;19921;-66
2022/09/20 04:28:14;;;;;;;;;;;;;;;12.43;47.06;101797.97;5030420;28;19928;-66
2022/09/20 04:30:43;;;;;;;;;;;;;;;12.43;46.92;101795.22;5033402;28;19927;-66
2022/09/20 04:33:14;;;;;;;;;;;;;;;12.43;46.99;101797.09;5033260;28;19927;-66
2022/09/20 04:38:34;;;;;;;;;;;;;;;12.41;47.39;101797.22;5027787;28;19921;-67
2022/09/20 04:41:15;;;;;;;;;;;;;;;12.42;46.94;101789.84;5026762;28;19925;-67
2022/09/20 04:43:56;;;;;;;;;;;;;;;12.42;47.37;101789.84;5022681;28;19925;-67
2022/09/20 04:46:43;;;;;;;;;;;;;;;12.42;47.17;101798.09;5024966;28;19921;-67
2022/09/20 04:49:29;;;;;;;;;;;;;;;12.41;47.09;101796.34;5035517;28;19963;-68
2022/09/20 04:52:12;;;;;;;;;;;;;;;12.41;47.35;101799.09;5026432;28;19975;-67
2022/09/20 04:54:58;;;;;;;;;;;;;;;12.41;47.34;101802.72;5021717;28;19925;-67
2022/09/20 04:57:41;;;;;;;;;;;;;;;12.41;47.17;101808.19;5023625;28;19928;-67
2022/09/20 05:00:11;;;;;;;;;;;;;;;12.41;47.12;101810.94;5027791;28;20274;-67
2022/09/20 05:02:54;;;;;;;;;;;;;;;12.41;47.12;101808.19;5027869;28;19979;-67
2022/09/20 05:05:38;;;;;;;;;;;;;;;12.41;47.27;101816.44;5024555;28;19952;-67
2022/09/20 05:08:35;;;;;;;;;;;;;;;12.42;47.14;101820.06;5029541;28;19928;-67
2022/09/20 05:11:17;;;;;;;;;;;;;;;12.40;47.15;101816.56;4972092;28;20017;-68
2022/09/20 05:13:54;;;;;;;;;;;;;;;12.41;47.36;101823.78;5020707;28;19924;-67
2022/09/20 05:16:26;;;;;;;;;;;;;;;12.40;47.25;101831.16;5019690;28;19981;-67
2022/09/20 05:19:09;;;;;;;;;;;;;;;12.40;47.08;101833.91;5037530;28;19927;-67
2022/09/20 05:21:45;;;;;;;;;;;;;;;12.41;47.55;101829.28;5025177;28;20020;-67
2022/09/20 05:24:30;;;;;;;;;;;;;;;12.39;47.23;101823.91;5033114;28;19976;-68
2022/09/20 05:27:09;;;;;;;;;;;;;;;12.40;47.29;101827.53;5026558;28;20052;-68
2022/09/20 05:29:42;;;;;;;;;;;;;;;12.41;47.54;101826.53;5021689;28;19932;-68
2022/09/20 05:32:15;;;;;;;;;;;;;;;12.41;47.34;101829.28;5027198;28;20011;-68
2022/09/20 05:34:46;;;;;;;;;;;;;;;12.40;47.58;101827.53;5031416;28;20024;-68
2022/09/20 05:37:19;;;;;;;;;;;;;;;12.41;47.22;101834.78;5018456;28;20350;-67
2022/09/20 05:39:51;;;;;;;;;;;;;;;12.41;47.35;101826.53;5030239;28;19928;-68
2022/09/20 05:42:22;;;;;;;;;;;;;;;12.41;47.15;101837.53;5000773;28;19925;-68
2022/09/20 05:44:56;;;;;;;;;;;;;;;12.40;47.35;101842.13;5004936;28;19944;-68
2022/09/20 05:47:27;;;;;;;;;;;;;;;12.40;47.27;101844.88;5012913;28;20386;-68
2022/09/20 05:49:59;;;;;;;;;;;;;;;12.41;47.14;101846.63;5015617;28;20484;-68
2022/09/20 05:52:37;;;;;;;;;;;;;;;12.41;47.41;101851.25;5002593;28;19936;-68
2022/09/20 05:55:14;;;;;;;;;;;;;;;12.41;47.31;101851.25;5012699;28;19929;-68
2022/09/20 05:57:48;;;;;;;;;;;;;;;12.40;47.18;101849.50;5026046;28;19927;-68
2022/09/20 06:00:18;;;;;;;;;;;;;;;12.40;47.73;101852.25;5036972;28;20736;-68
2022/09/20 06:02:52;;;;;;;;;;;;;;;12.40;47.56;101849.50;5029085;28;19932;-67
2022/09/20 06:05:28;;;;;;;;;;;;;;;12.40;47.67;101850.38;5027023;28;19928;-67
2022/09/20 06:08:08;;;;;;;;;;;;;;;12.41;47.36;101848.50;5025995;28;20295;-67
2022/09/20 06:10:46;;;;;;;;;;;;;;;12.40;47.73;101849.50;5022390;28;19929;-67
2022/09/20 06:13:33;;;;;;;;;;;;;;;12.40;47.58;101847.63;5022013;28;19987;-67
2022/09/20 06:16:03;;;;;;;;;;;;;;;12.41;47.71;101851.25;5020765;28;19925;-67
2022/09/20 06:18:33;;;;;;;;;;;;;;;12.41;47.56;101856.75;5028452;28;20284;-67
2022/09/20 06:21:07;;;;;;;;;;;;;;;12.41;47.60;101854.00;5027793;28;20011;-67
2022/09/20 06:23:35;;;;;;;;;;;;;;;12.42;47.52;101853.00;5027484;28;20024;-67
2022/09/20 06:26:06;;;;;;;;;;;;;;;12.40;47.76;101855.88;5024825;28;19921;-67
2022/09/20 06:28:39;;;;;;;;;;;;;;;12.43;47.50;101854.75;5029211;28;19921;-67
2022/09/20 06:31:08;;;;;;;;;;;;;;;12.43;47.91;101857.50;5035150;28;19929;-67
2022/09/20 06:33:41;;;;;;;;;;;;;;;12.44;47.72;101853.75;5027291;28;19936;-67
2022/09/20 06:41:48;;;;;;;;;;;;;;;12.47;47.85;101868.09;5027553;28;19921;-67
2022/09/20 06:44:18;;;;;;;;;;;;;;;12.48;47.85;101864.34;5023045;28;20284;-67
2022/09/20 06:46:46;;;;;;;;;;;;;;;12.53;48.04;101860.38;5027679;28;20399;-67
2022/09/20 06:49:14;;;;;;;;;;;;;;;12.57;48.44;101864.63;5025438;28;20351;-67
2022/09/20 06:51:42;;;;;;;;;;;;;;;12.63;48.36;101869.66;5027766;28;20407;-67
2022/09/20 06:54:15;;;;;;;;;;;;;;;12.70;48.68;101868.19;5026103;28;19929;-67
2022/09/20 06:56:44;;;;;;;;;;;;;;;12.82;49.21;101870.78;5032098;28;19931;-67
2022/09/20 06:59:11;;;;;;;;;;;;;;;12.97;49.45;101868.66;5031846;28;19921;-67
2022/09/20 07:01:41;;;;;;;;;;;;;;;13.16;49.83;101862.53;5030035;28;20557;-67
2022/09/20 07:04:09;;;;;;;;;;;;;;;13.39;50.34;101874.38;5028410;28;19967;-67
2022/09/20 07:06:37;;;;;;;;;;;;;;;13.61;49.98;101872.47;5026296;28;19929;-67
2022/09/20 07:09:05;;;;;;;;;;;;;;;13.82;49.84;101869.78;5027835;28;19921;-70
2022/09/20 07:11:33;;;;;;;;;;;;;;;14.02;49.78;101877.16;5024296;28;19925;-70
2022/09/20 07:14:01;;;;;;;;;;;;;;;14.23;49.80;101881.84;5027056;28;19920;-70
2022/09/20 07:16:29;;;;;;;;;;;;;;;14.44;49.85;101887.34;5026320;28;19928;-69
2022/09/20 07:18:59;;;;;;;;;;;;;;;14.67;49.85;101883.50;5029246;28;19924;-67
2022/09/20 07:21:26;;;;;;;;;;;;;;;14.93;49.86;101884.75;5026109;28;19979;-67
2022/09/20 07:23:54;;;;;;;;;;;;;;;15.20;49.79;101897.94;5026398;28;20636;-67
2022/09/20 07:26:25;;;;;;;;;;;;;;;15.48;49.48;101890.81;5025598;28;19921;-69
2022/09/20 07:28:53;;;;;;;;;;;;;;;15.76;49.27;101887.22;5026576;28;20557;-64
2022/09/20 07:31:22;;;;;;;;;;;;;;;16.02;48.96;101889.41;5026389;28;19921;-65
2022/09/20 07:33:50;;;;;;;;;;;;;;;16.24;48.79;101891.94;5027650;28;20528;-65
2022/09/20 07:36:17;;;;;;;;;;;;;;;;;;5033129;28;19925;-65
2022/09/20 07:38:48;;;;;;;;;;;;;;;16.56;47.41;101894.38;5027651;28;19928;-64
2022/09/20 07:41:17;;;;;;;;;;;;;;;16.66;47.16;101886.06;5014035;28;19925;-65
2022/09/20 07:43:46;;;;;;;;;;;;;;;16.74;46.54;101886.19;5032340;28;19927;-64
2022/09/20 07:46:13;;;;;;;;;;;;;;;16.78;46.70;101882.06;5026845;28;19929;-64
2022/09/20 07:48:41;;;;;;;;;;;;;;;16.82;46.20;101881.66;5026772;28;20370;-69
2022/09/20 07:51:10;;;;;;;;;;;;;;;16.86;46.64;101876.66;5026518;28;20013;-69
2022/09/20 07:53:38;;;;;;;;;;;;;;;16.91;46.40;101883.47;5025244;28;19921;-68
2022/09/20 07:56:09;;;;;;;;;;;;;;;16.99;46.84;101879.97;5021754;28;19925;-67
2022/09/20 07:58:37;;;;;;;;;;;;;;;17.11;46.41;101895.38;5038766;28;20023;-67
2022/09/20 08:01:06;;;;;;;;;;;;;;;17.21;46.23;101900.88;5028935;28;19921;-67
2022/09/20 08:03:34;;;;;;;;;;;;;;;17.28;46.55;101900.09;5024507;28;20421;-68
2022/09/20 08:06:03;;;;;;;;;;;;;;;17.36;46.22;101897.44;5022617;28;19929;-68
2022/09/20 08:08:31;;;;;;;;;;;;;;;17.42;45.81;101898.72;5025177;28;19975;-67
2022/09/20 08:11:04;;;;;;;;;;;;;;;17.47;45.63;101892.72;5024089;28;19928;-67
2022/09/20 08:13:34;;;;;;;;;;;;;;;17.50;45.33;101892.41;5022225;28;19921;-67
2022/09/20 08:16:23;;;;;;;;;;;;;;;17.51;44.51;101888.59;5024120;28;20407;-67
2022/09/20 08:18:52;;;;;;;;;;;;;;;17.50;44.46;101889.63;5024065;28;19921;-67
2022/09/20 08:21:20;;;;;;;;;;;;;;;17.48;44.49;101897.25;5024558;28;20334;-67
2022/09/20 08:23:48;;;;;;;;;;;;;;;17.45;44.08;101901.19;5026474;28;19925;-67
2022/09/20 08:26:17;;;;;;;;;;;;;;;17.42;44.31;101904.25;5024607;28;19928;-67
2022/09/20 08:28:48;;;;;;;;;;;;;;;17.36;43.60;101918.72;5026225;28;19921;-67
2022/09/20 08:31:18;;;;;;;;;;;;;;;17.32;44.11;101914.47;5025872;28;19932;-68
2022/09/20 08:33:46;;;;;;;;;;;;;;;17.26;43.64;101915.97;5022944;28;19997;-67
2022/09/20 08:36:15;;;;;;;;;;;;;;;17.21;43.96;101918.34;5026864;28;19927;-67
2022/09/20 08:38:43;;;;;;;;;;;;;;;17.16;43.42;101923.44;5026626;28;19925;-67
2022/09/20 08:41:32;;;;;;;;;;;;;;;17.08;43.71;101912.25;5026627;28;20264;-68
2022/09/20 08:44:03;;;;;;;;;;;;;;;17.00;43.46;101917.69;5030177;28;20346;-67
2022/09/20 08:46:34;;;;;;;;;;;;;;;16.93;43.32;101922.91;5028043;28;19921;-67
2022/09/20 08:49:03;;;;;;;;;;;;;;;16.86;43.03;101924.53;5030591;28;20599;-67
2022/09/20 08:51:33;;;;;;;;;;;;;;;16.78;43.17;101924.41;5027282;28;20518;-67
2022/09/20 08:54:02;;;;;;;;;;;;;;;16.70;42.90;101924.28;5033062;28;19921;-67
2022/09/20 08:56:31;;;;;;;;;;;;;;;16.63;43.35;101923.16;5038580;28;19967;-66
2022/09/20 08:58:59;;;;;;;;;;;;;;;16.55;42.92;101923.88;5029740;28;19920;-67
2022/09/20 09:01:31;;;;;;;;;;;;;;;16.48;42.83;101922.75;5019605;28;19932;-67
2022/09/20 09:04:02;;;;;;;;;;;;;;;16.43;43.39;101925.06;5031048;28;19925;-67
2022/09/20 09:06:30;;;;;;;;;;;;;;;16.38;43.06;101919.09;5027977;28;20281;-67
2022/09/20 09:08:59;;;;;;;;;;;;;;;16.36;43.13;101925.78;5030310;28;20307;-66
2022/09/20 09:11:27;;;;;;;;;;;;;;;16.34;43.72;101922.28;5029625;28;19921;-67
2022/09/20 09:13:56;;;;;;;;;;;;;;;16.34;43.42;101930.56;5032213;28;19924;-67
2022/09/20 09:16:25;;;;;;;;;;;;;;;16.35;43.96;101926.81;5024341;28;19928;-67
2022/09/20 09:19:26;;;;;;;;;;;;;;;16.35;43.61;101919.38;5024668;28;19960;-67
2022/09/20 09:22:02;;;;;;;;;;;;;;;16.38;43.86;101926.53;5028139;28;19921;-67
2022/09/20 09:24:30;;;;;;;;;;;;;;;;;;5035078;28;19925;-67
2022/09/20 09:27:05;;;;;;;;;;;;;;;16.43;43.23;101925.06;5031154;28;19928;-67
2022/09/20 09:29:33;;;;;;;;;;;;;;;16.45;43.31;101923.03;5026495;28;19964;-67
2022/09/20 09:32:18;;;;;;;;;;;;;;;16.48;42.93;101928.25;5028975;28;20007;-67
2022/09/20 09:34:47;;;;;;;;;;;;;;;16.49;43.35;101920.84;5030519;28;19974;-67
2022/09/20 09:37:23;;;;;;;;;;;;;;;16.48;43.42;101922.75;5025017;28;19967;-67
2022/09/20 09:40:11;;;;;;;;;;;;;;;16.49;42.96;101918.97;5033033;28;19933;-67
2022/09/20 09:42:48;;;;;;;;;;;;;;;16.51;43.65;101914.13;5022219;28;19967;-67
2022/09/20 09:45:25;;;;;;;;;;;;;;;16.55;43.25;101921.13;5025041;28;19963;-66
2022/09/20 09:47:53;;;;;;;;;;;;;;;16.59;42.87;101916.16;5027256;28;20007;-67
2022/09/20 09:50:24;;;;;;;;;;;;;;;16.62;42.98;101913.09;5028243;28;19921;-68
2022/09/20 09:52:58;;;;;;;;;;;;;;;16.66;43.14;101916.47;5034585;28;20268;-66
2022/09/20 09:55:31;;;;;;;;;;;;;;;16.69;42.99;101907.84;5023949;28;19921;-66
2022/09/20 09:58:02;;;;;;;;;;;;;;;16.72;43.11;101910.31;5030355;28;19929;-66
2022/09/20 10:00:31;;;;;;;;;;;;;;;16.75;42.71;101915.53;5026340;28;19927;-66
2022/09/20 10:03:05;;;;;;;;;;;;;;;16.78;43.00;101912.47;5030356;28;20391;-66
2022/09/20 10:05:37;;;;;;;;;;;;;;;16.80;42.81;101915.97;5024945;28;19960;-66
2022/09/20 10:08:14;;;;;;;;;;;;;;;16.83;42.78;101913.75;5026715;28;20405;-66
2022/09/20 10:10:49;;;;;;;;;;;;;;;16.86;42.40;101912.59;5022818;28;19920;-66
2022/09/20 10:13:23;;;;;;;;;;;;;;;16.87;42.27;101909.69;5028065;28;20348;-66
2022/09/20 10:15:53;;;;;;;;;;;;;;;16.89;42.32;101907.66;5024593;28;20020;-66
2022/09/20 10:18:36;;;;;;;;;;;;;;;16.91;41.95;101913.00;5028522;28;20077;-67
2022/09/20 10:21:12;;;;;;;;;;;;;;;16.91;41.96;101907.47;5020418;28;19921;-67
2022/09/20 10:23:47;;;;;;;;;;;;;;;16.92;41.58;101915.63;5027633;28;19928;-67
2022/09/20 10:26:38;;;;;;;;;;;;;;;16.90;41.68;101920.47;5027934;28;20003;-67
2022/09/20 10:29:14;;;;;;;;;;;;;;;16.87;40.88;101904.16;5024131;28;19925;-66
2022/09/20 10:31:47;;;;;;;;;;;;;;;16.85;41.45;101910.84;5022747;28;20059;-69
2022/09/20 10:34:26;;;;;;;;;;;;;;;16.81;41.37;101914.97;5019752;28;19921;-68
2022/09/20 10:37:00;;;;;;;;;;;;;;;16.76;40.96;101909.00;5050008;23;19978;-84
2022/09/20 10:39:34;;;;;;;;;;;;;;;16.72;41.11;101915.84;5031017;28;19959;-84
2022/09/20 10:45:04;;;;;;;;;;;;;;;16.58;40.81;101915.28;4994508;28;19922;-84
2022/09/20 10:47:34;;;;;;;;;;;;;;;16.53;40.88;101916.75;5002209;28;19972;-82
2022/09/20 10:50:07;;;;;;;;;;;;;;;16.48;41.10;101919.09;5027055;28;20015;-84
2022/09/20 10:53:00;;;;;;;;;;;;;;;16.41;41.18;101920.72;5012510;28;19984;-84
2022/09/20 10:55:35;;;;;;;;;;;;;;;16.35;40.68;101926.81;4998866;28;19921;-84
2022/09/20 10:58:19;;;;;;;;;;;;;;;16.29;41.02;101925.50;4995983;28;19921;-83
2022/09/20 11:00:53;;;;;;;;;;;;;;;16.22;40.97;101925.22;4958054;28;19971;-85
2022/09/20 11:03:36;;;;;;;;;;;;;;;16.18;41.26;101928.41;5013393;28;19921;-85
2022/09/20 11:06:14;;;;;;;;;;;;;;;16.12;41.20;101920.66;4989133;28;19949;-84
2022/09/20 11:09:00;;;;;;;;;;;;;;;16.07;41.13;101931.28;5004989;28;20023;-85
2022/09/20 11:11:37;;;;;;;;;;;;;;;16.02;41.49;101926.19;4998078;28;20324;-85
2022/09/20 11:14:43;;;;;;;;;;;;;;;16.00;41.40;101930.13;4995055;28;19941;-84
2022/09/20 11:17:42;;;;;;;;;;;;;;;15.96;41.24;101926.78;5039227;28;19929;-84
2022/09/20 11:20:15;;;;;;;;;;;;;;;15.94;41.36;101933.44;5036702;28;20031;-84
2022/09/20 11:22:45;;;;;;;;;;;;;;;15.93;41.32;101935.31;5013364;28;19928;-84
2022/09/20 11:25:16;;;;;;;;;;;;;;;15.91;41.43;101931.88;5031200;28;19933;-85
2022/09/20 11:27:51;;;;;;;;;;;;;;;15.91;41.44;101934.63;5022478;28;19921;-84
2022/09/20 11:30:20;;;;;;;;;;;;;;;15.91;41.42;101939.28;5008980;28;19921;-84
2022/09/20 11:32:51;;;;;;;;;;;;;;;15.90;41.77;101935.63;5010392;28;19947;-84
2022/09/20 11:35:29;;;;;;;;;;;;;;;15.91;41.71;101936.50;5000545;28;20348;-84
2022/09/20 11:38:03;;;;;;;;;;;;;;;15.92;41.50;101935.50;5003464;28;19925;-84
2022/09/20 11:40:34;;;;;;;;;;;;;;;15.92;41.37;101939.09;5008622;28;20091;-85
2022/09/20 11:43:05;;;;;;;;;;;;;;;15.96;41.47;101942.47;5007394;28;19928;-84
2022/09/20 11:45:38;;;;;;;;;;;;;;;15.99;41.51;101944.94;5001685;28;19936;-85
2022/09/20 11:48:10;;;;;;;;;;;;;;;16.03;41.69;101944.50;5013982;28;19927;-84
2022/09/20 11:50:55;;;;;;;;;;;;;;;16.08;42.15;101953.25;5009031;28;20400;-83
2022/09/20 11:53:33;;;;;;;;;;;;;;;16.15;41.82;101948.88;5021471;28;19921;-82
2022/09/20 11:56:07;;;;;;;;;;;;;;;16.23;42.23;101954.59;5006788;28;20321;-83
2022/09/20 11:58:45;;;;;;;;;;;;;;;16.30;41.73;101943.81;5026056;28;20052;-83
2022/09/20 12:01:16;;;;;;;;;;;;;;;16.38;41.66;101941.22;4996317;28;19925;-83
2022/09/20 12:03:51;;;;;;;;;;;;;;;16.45;41.60;101938.72;5026629;28;20008;-85
2022/09/20 12:06:53;;;;;;;;;;;;;;;16.54;41.88;101940.59;5007308;28;19952;-83
2022/09/20 12:09:24;;;;;;;;;;;;;;;16.61;41.45;101941.75;5022385;28;19928;-83
2022/09/20 12:12:04;;;;;;;;;;;;;;;16.66;41.25;101942.19;5005714;28;19925;-83
2022/09/20 12:14:36;;;;;;;;;;;;;;;16.72;41.28;101937.97;5011708;28;19921;-83
2022/09/20 12:17:05;;;;;;;;;;;;;;;16.78;41.30;101932.72;5011023;28;20400;-83
2022/09/20 12:19:38;;;;;;;;;;;;;;;16.85;41.74;101942.16;5011208;28;19948;-83
2022/09/20 12:22:18;;;;;;;;;;;;;;;16.92;41.20;101937.75;5010190;28;20569;-84
2022/09/20 12:28:18;;;;;;;;;;;;;;;17.02;41.37;101935.88;5028385;28;20479;-83
2022/09/20 12:31:09;;;;;;;;;;;;;;;17.09;41.12;101940.78;4995790;28;19925;-84
2022/09/20 12:38:03;;;;;;;;;;;;;;;17.10;40.81;101937.88;5011389;28;19996;-83
2022/09/20 12:40:45;;;;;;;;;;;;;;;17.09;40.36;101930.59;4987317;28;20027;-83
2022/09/20 12:43:42;;;;;;;;;;;;;;;17.08;40.18;101939.91;4999772;28;20322;-83
2022/09/20 12:46:21;;;;;;;;;;;;;;;17.07;40.18;101940.09;5009746;28;19921;-84
2022/09/20 12:48:51;;;;;;;;;;;;;;;17.02;40.48;101933.09;5009323;28;19975;-83
2022/09/20 12:54:29;;;;;;;;;;;;;;;16.96;40.14;101928.16;5009646;28;19929;-85
2022/09/20 12:57:16;;;;;;;;;;;;;;;16.92;40.40;101934.13;5021212;28;19928;-84
2022/09/20 12:59:55;;;;;;;;;;;;;;;16.88;40.54;101927.16;5013949;28;19921;-83
2022/09/20 13:02:46;;;;;;;;;;;;;;;16.85;40.60;101927.44;5005687;28;19925;-84
2022/09/20 13:05:36;;;;;;;;;;;;;;;16.82;40.51;101931.41;5008854;28;19922;-83
2022/09/20 13:08:14;;;;;;;;;;;;;;;16.81;40.32;101931.56;5011959;28;20262;-83
2022/09/20 13:10:45;;;;;;;;;;;;;;;16.80;40.77;101932.56;5009321;28;19921;-83
2022/09/20 13:13:16;;;;;;;;;;;;;;;16.80;40.56;101932.56;5010062;28;20007;-83
2022/09/20 13:15:51;;;;;;;;;;;;;;;16.80;40.57;101925.16;5010070;28;20408;-83
2022/09/20 13:18:19;;;;;;;;;;;;;;;16.82;40.35;101934.19;5004053;28;19933;-81
2022/09/20 13:20:47;;;;;;;;;;;;;;;16.83;40.35;101921.19;5019508;28;19983;-84
2022/09/20 13:23:19;;;;;;;;;;;;;;;16.85;40.74;101927.44;5023257;28;19929;-77
2022/09/20 13:25:47;;;;;;;;;;;;;;;16.86;40.66;101929.19;5008777;28;19988;-78
2022/09/20 13:28:27;;;;;;;;;;;;;;;16.88;41.08;101928.03;5012130;28;20398;-78
2022/09/20 13:31:13;;;;;;;;;;;;;;;16.90;40.75;101928.75;5011281;28;20518;-77
2022/09/20 13:33:43;;;;;;;;;;;;;;;16.94;40.70;101921.91;4999559;28;19922;-78
2022/09/20 13:36:10;;;;;;;;;;;;;;;16.97;41.06;101924.41;5002814;28;19926;-77
2022/09/20 13:38:38;;;;;;;;;;;;;;;17.01;41.16;101923.06;5009882;28;19960;-77